Time;durP1;ratioP1;P1;durP2;ratioP2;P2;SDS_P1;SDS_P2;PMS_P1;PMS_P2;Temp;Humidity;BMP_temperature;BMP_pressure;BME280_temperature;BME280_humidity;BME280_pressure;Samples;Min_cycle;Max_cycle;Signal;HPM_P1;HPM_P2
2022/10/05 00:00:16;;;;;;;10.10;1.67;;;16.90;99.90;;;;;;5055431;28;20260;-60
2022/10/05 00:02:42;;;;;;;6.60;1.60;;;;;;;;;;5056594;28;20264;-59
2022/10/05 00:05:29;;;;;;;9.20;1.52;;;17.00;99.90;;;;;;5055159;28;20180;-59
2022/10/05 00:08:03;;;;;;;12.57;1.60;;;16.90;99.90;;;;;;5067232;28;20205;-59
2022/10/05 00:10:29;;;;;;;10.65;1.67;;;;;;;;;;5053041;28;20158;-59
2022/10/05 00:12:55;;;;;;;10.15;1.83;;;17.00;99.90;;;;;;5065098;28;20228;-60
2022/10/05 00:15:21;;;;;;;11.55;1.50;;;17.10;99.90;;;;;;5072729;28;20631;-60
2022/10/05 00:17:47;;;;;;;11.20;1.77;;;17.40;99.90;;;;;;5072953;28;20187;-59
2022/10/05 00:20:25;;;;;;;11.10;1.65;;;17.00;99.90;;;;;;5072689;28;20181;-58
2022/10/05 00:22:56;;;;;;;8.07;1.60;;;17.20;99.90;;;;;;5072873;28;20744;-59
2022/10/05 00:25:22;;;;;;;10.25;1.92;;;17.00;99.90;;;;;;5066332;28;20263;-58
2022/10/05 00:28:15;;;;;;;10.65;1.52;;;17.10;99.90;;;;;;5072657;28;20674;-59
2022/10/05 00:30:41;;;;;;;12.80;2.03;;;17.00;99.90;;;;;;5072524;28;20263;-59
2022/10/05 00:33:06;;;;;;;11.90;2.05;;;17.20;99.90;;;;;;5072740;28;20203;-58
2022/10/05 00:35:34;;;;;;;12.43;2.20;;;17.20;99.90;;;;;;5072377;28;20177;-58
2022/10/05 00:38:00;;;;;;;10.20;2.03;;;17.20;99.90;;;;;;5072640;28;20297;-58
2022/10/05 00:40:37;;;;;;;11.27;1.90;;;17.20;99.90;;;;;;5072305;28;20176;-59
2022/10/05 00:43:41;;;;;;;10.30;2.00;;;17.00;99.90;;;;;;5072268;28;20195;-58
2022/10/05 00:46:15;;;;;;;9.27;1.80;;;17.10;99.90;;;;;;5056200;28;20496;-59
2022/10/05 00:48:59;;;;;;;10.85;1.50;;;17.10;99.90;;;;;;5072541;28;20178;-58
2022/10/05 00:51:30;;;;;;;12.25;1.83;;;17.30;99.90;;;;;;5072423;28;20175;-58
2022/10/05 00:54:17;;;;;;;9.60;1.70;;;17.30;99.90;;;;;;5072489;28;20179;-58
2022/10/05 00:56:55;;;;;;;11.38;1.35;;;17.00;99.90;;;;;;5072346;28;20173;-58
2022/10/05 00:59:32;;;;;;;11.30;1.55;;;17.10;99.90;;;;;;5072191;28;20179;-58
2022/10/05 01:02:10;;;;;;;10.73;2.13;;;17.00;99.90;;;;;;5072144;28;20225;-58
2022/10/05 01:05:01;;;;;;;10.43;1.55;;;16.80;99.90;;;;;;5072162;28;20196;-58
2022/10/05 01:08:04;;;;;;;8.02;1.50;;;17.10;99.90;;;;;;5071214;28;20239;-58
2022/10/05 01:10:46;;;;;;;9.52;1.70;;;17.20;99.90;;;;;;5067199;28;20188;-58
2022/10/05 01:13:36;;;;;;;16.35;2.55;;;17.20;99.90;;;;;;5057391;28;20227;-58
2022/10/05 01:16:18;;;;;;;13.23;1.88;;;17.10;99.90;;;;;;5070947;28;20623;-58
2022/10/05 01:18:52;;;;;;;9.07;1.13;;;17.20;99.90;;;;;;5061956;28;20188;-58
2022/10/05 01:21:21;;;;;;;13.27;1.95;;;17.20;99.90;;;;;;5056344;28;20209;-57
2022/10/05 01:23:47;;;;;;;10.70;2.17;;;17.20;99.90;;;;;;5071594;28;20263;-58
2022/10/05 01:26:37;;;;;;;7.55;1.55;;;17.20;99.90;;;;;;5065441;28;20277;-59
2022/10/05 01:29:09;;;;;;;11.32;2.20;;;17.30;99.90;;;;;;5051617;28;20183;-58
2022/10/05 01:31:48;;;;;;;17.27;2.08;;;17.30;99.90;;;;;;5051529;28;20223;-59
2022/10/05 01:34:32;;;;;;;12.07;2.00;;;17.20;99.90;;;;;;5051574;28;20173;-58
2022/10/05 01:37:25;;;;;;;12.82;1.88;;;17.50;99.90;;;;;;5051589;28;20187;-58
2022/10/05 01:40:12;;;;;;;10.15;1.65;;;17.30;99.90;;;;;;5069381;28;20177;-59
2022/10/05 01:43:10;;;;;;;5.05;1.23;;;17.20;99.90;;;;;;5070921;28;20223;-59
2022/10/05 01:45:58;;;;;;;7.93;1.27;;;17.20;99.90;;;;;;5070861;28;20177;-59
2022/10/05 01:48:24;;;;;;;7.00;1.23;;;;;;;;;;5070035;28;20238;-58
2022/10/05 01:51:15;;;;;;;13.05;2.33;;;17.00;99.90;;;;;;5071208;28;20738;-58
2022/10/05 01:54:00;;;;;;;17.70;2.08;;;17.10;99.90;;;;;;5071294;28;20180;-59
2022/10/05 01:56:29;;;;;;;12.57;2.25;;;17.00;99.90;;;;;;5069954;28;20226;-59
2022/10/05 01:59:15;;;;;;;13.93;1.92;;;17.10;99.90;;;;;;5071272;28;20259;-59
2022/10/05 02:01:48;;;;;;;18.05;2.25;;;17.10;99.90;;;;;;5071101;28;20643;-59
2022/10/05 02:04:21;;;;;;;13.05;2.17;;;17.30;99.90;;;;;;5071154;28;20259;-60
2022/10/05 02:06:49;;;;;;;7.38;1.38;;;17.20;99.90;;;;;;5071060;28;20269;-59
2022/10/05 02:09:38;;;;;;;17.15;2.83;;;17.10;99.90;;;;;;5070661;28;20176;-59
2022/10/05 02:12:09;;;;;;;15.07;2.63;;;17.00;99.90;;;;;;5070581;28;20220;-59
2022/10/05 02:14:40;;;;;;;12.27;2.53;;;17.20;99.90;;;;;;5070577;28;20192;-59
2022/10/05 02:17:30;;;;;;;19.42;2.70;;;17.20;99.90;;;;;;5070765;28;20172;-58
2022/10/05 02:20:04;;;;;;;7.18;1.92;;;17.20;99.90;;;;;;5070601;28;20234;-59
2022/10/05 02:22:51;;;;;;;11.13;1.60;;;17.20;99.90;;;;;;5070580;28;20171;-59
2022/10/05 02:25:25;;;;;;;12.55;2.50;;;17.20;99.90;;;;;;5070696;28;20172;-58
2022/10/05 02:28:19;;;;;;;14.65;2.45;;;17.10;99.90;;;;;;5065659;28;20201;-59
2022/10/05 02:31:02;;;;;;;18.08;1.88;;;17.20;99.90;;;;;;5023488;28;20234;-59
2022/10/05 02:33:31;;;;;;;13.20;2.13;;;17.40;99.90;;;;;;5065433;28;20207;-59
2022/10/05 02:36:22;;;;;;;16.33;1.98;;;17.10;99.90;;;;;;5068919;28;20177;-59
2022/10/05 02:38:54;;;;;;;11.55;2.00;;;17.30;99.90;;;;;;5067385;28;20199;-59
2022/10/05 02:41:27;;;;;;;11.20;1.83;;;17.20;99.90;;;;;;5050342;28;20673;-58
2022/10/05 02:44:08;;;;;;;7.63;1.83;;;17.20;99.90;;;;;;5056225;28;20180;-58
2022/10/05 02:46:40;;;;;;;18.08;2.17;;;17.30;99.90;;;;;;5058743;28;20205;-58
2022/10/05 02:49:05;;;;;;;16.52;2.05;;;17.00;99.90;;;;;;5052763;28;20687;-58
2022/10/05 02:51:57;;;;;;;15.25;2.03;;;17.20;99.90;;;;;;5070264;28;20282;-59
2022/10/05 02:54:47;;;;;;;25.50;3.75;;;17.20;99.90;;;;;;5070078;28;20180;-58
2022/10/05 02:57:24;;;;;;;15.18;2.08;;;17.20;99.90;;;;;;5050696;28;20185;-58
2022/10/05 02:59:55;;;;;;;11.88;1.83;;;17.20;99.90;;;;;;5050529;28;20196;-58
2022/10/05 03:02:30;;;;;;;8.52;1.60;;;17.30;99.90;;;;;;5069813;28;20194;-59
2022/10/05 03:05:11;;;;;;;9.75;1.92;;;16.90;99.90;;;;;;5070142;28;20172;-58
2022/10/05 03:08:01;;;;;;;10.98;2.28;;;17.00;99.90;;;;;;5070248;28;20273;-58
2022/10/05 03:10:45;;;;;;;13.65;2.03;;;17.00;99.90;;;;;;5070264;28;20196;-59
2022/10/05 03:13:24;;;;;;;21.23;2.20;;;17.20;99.90;;;;;;5062373;28;20220;-59
2022/10/05 03:16:08;;;;;;;16.92;1.98;;;17.20;99.90;;;;;;5055840;28;20172;-59
2022/10/05 03:18:45;;;;;;;12.68;1.95;;;17.20;99.90;;;;;;5070534;28;20173;-59
2022/10/05 03:21:23;;;;;;;10.25;1.67;;;17.20;99.90;;;;;;5067827;28;20172;-59
2022/10/05 03:23:51;;;;;;;9.25;1.10;;;17.20;99.90;;;;;;5055192;28;20176;-60
2022/10/05 03:26:23;;;;;;;13.65;1.73;;;17.10;99.90;;;;;;5069212;28;20179;-59
2022/10/05 03:29:19;;;;;;;16.55;2.35;;;17.50;99.90;;;;;;5057110;28;20701;-59
2022/10/05 03:32:06;;;;;;;8.73;1.75;;;17.20;99.90;;;;;;5073087;28;20192;-58
2022/10/05 03:34:43;;;;;;;12.68;1.55;;;17.20;99.90;;;;;;5073848;28;20204;-59
2022/10/05 03:37:22;;;;;;;12.48;2.33;;;17.30;99.90;;;;;;5068740;28;20223;-59
2022/10/05 03:40:00;;;;;;;14.82;2.08;;;17.20;99.90;;;;;;5067606;28;20246;-59
2022/10/05 03:42:36;;;;;;;13.73;1.80;;;17.20;99.90;;;;;;5071397;28;20179;-59
2022/10/05 03:45:17;;;;;;;13.75;1.83;;;17.40;99.90;;;;;;5053759;28;20218;-59
2022/10/05 03:48:06;;;;;;;15.07;1.75;;;17.30;99.90;;;;;;5053748;28;20219;-59
2022/10/05 03:50:49;;;;;;;12.05;1.83;;;17.30;99.90;;;;;;5053649;28;20648;-58
2022/10/05 03:53:26;;;;;;;10.63;1.67;;;17.10;99.90;;;;;;5053138;28;20177;-59
2022/10/05 03:56:33;;;;;;;10.95;1.58;;;17.00;99.90;;;;;;5065532;28;20172;-58
2022/10/05 03:59:19;;;;;;;11.40;1.73;;;17.20;99.90;;;;;;5068794;28;20180;-59
2022/10/05 04:02:26;;;;;;;10.48;1.85;;;17.20;99.90;;;;;;5073514;28;20192;-58
2022/10/05 04:05:02;;;;;;;10.40;1.23;;;17.10;99.90;;;;;;5045888;28;20184;-59
2022/10/05 04:07:51;;;;;;;11.25;1.58;;;17.10;99.90;;;;;;5073436;28;20204;-59
2022/10/05 04:10:24;;;;;;;8.95;2.08;;;17.50;99.90;;;;;;5072648;28;20388;-58
2022/10/05 04:13:28;;;;;;;9.57;2.05;;;17.20;99.90;;;;;;5073143;28;20251;-58
2022/10/05 04:16:14;;;;;;;7.38;1.88;;;17.20;99.90;;;;;;5032022;28;20195;-59
2022/10/05 04:19:22;;;;;;;6.93;1.42;;;17.20;99.90;;;;;;5073164;28;20199;-59
2022/10/05 04:22:19;;;;;;;8.57;1.63;;;17.50;99.90;;;;;;5072479;28;20256;-59
2022/10/05 04:24:51;;;;;;;6.97;1.58;;;17.10;99.90;;;;;;5064772;28;20536;-59
2022/10/05 04:27:31;;;;;;;5.30;0.98;;;17.30;99.90;;;;;;5072923;28;20197;-58
2022/10/05 04:30:11;;;;;;;10.82;1.90;;;17.20;99.90;;;;;;5071883;28;20449;-59
2022/10/05 04:32:44;;;;;;;8.48;1.88;;;17.20;99.90;;;;;;5072039;28;20169;-59
2022/10/05 04:35:19;;;;;;;8.52;1.27;;;17.10;99.90;;;;;;5071083;28;20179;-58
2022/10/05 04:38:03;;;;;;;5.15;1.10;;;17.30;99.90;;;;;;5072820;28;20258;-58
2022/10/05 04:40:49;;;;;;;6.07;1.05;;;17.20;99.90;;;;;;5071865;28;20176;-58
2022/10/05 04:43:38;;;;;;;6.25;1.35;;;17.20;99.90;;;;;;5071320;28;20180;-58
2022/10/05 04:46:20;;;;;;;5.07;0.80;;;17.20;99.90;;;;;;5071506;28;20181;-58
2022/10/05 04:49:05;;;;;;;7.57;1.33;;;17.20;99.90;;;;;;5072608;28;20180;-58
2022/10/05 04:51:59;;;;;;;6.80;1.30;;;17.20;99.90;;;;;;5072290;28;20175;-58
2022/10/05 04:54:49;;;;;;;5.65;1.15;;;17.20;99.90;;;;;;5062313;28;20202;-58
2022/10/05 04:57:23;;;;;;;7.57;1.60;;;17.20;99.90;;;;;;5052565;28;20165;-58
2022/10/05 05:00:04;;;;;;;8.85;1.48;;;17.30;99.90;;;;;;5061937;28;20175;-58
2022/10/05 05:03:13;;;;;;;4.22;1.02;;;17.10;99.90;;;;;;5072680;28;20582;-58
2022/10/05 05:06:07;;;;;;;7.72;1.55;;;17.20;99.90;;;;;;5072386;28;20233;-58
2022/10/05 05:08:51;;;;;;;8.15;1.35;;;17.00;99.90;;;;;;5070932;28;20215;-58
2022/10/05 05:11:40;;;;;;;8.35;1.10;;;17.10;99.90;;;;;;5071954;28;20298;-58
2022/10/05 05:14:18;;;;;;;6.72;1.05;;;17.50;99.90;;;;;;5070726;28;20601;-58
2022/10/05 05:16:53;;;;;;;6.35;1.35;;;17.00;99.90;;;;;;5072202;28;20168;-58
2022/10/05 05:19:45;;;;;;;9.23;1.38;;;17.50;99.90;;;;;;5072168;28;20262;-59
2022/10/05 05:22:30;;;;;;;11.80;1.55;;;17.40;99.90;;;;;;5051900;28;20180;-58
2022/10/05 05:25:16;;;;;;;7.43;1.38;;;17.20;99.90;;;;;;5064239;28;20216;-59
2022/10/05 05:27:50;;;;;;;5.25;1.30;;;17.30;99.90;;;;;;5071768;28;20294;-58
2022/10/05 05:30:41;;;;;;;7.70;1.27;;;17.20;99.90;;;;;;5071573;28;20180;-58
2022/10/05 05:33:35;;;;;;;7.22;1.70;;;17.10;99.90;;;;;;5071712;28;20222;-58
2022/10/05 05:36:25;;;;;;;6.53;1.33;;;19.50;99.90;;;;;;5071727;28;20255;-58
2022/10/05 05:39:05;;;;;;;6.40;1.23;;;17.30;99.90;;;;;;5071665;28;20252;-58
2022/10/05 05:41:36;;;;;;;14.15;1.70;;;17.10;99.90;;;;;;5071349;28;20168;-58
2022/10/05 05:44:24;;;;;;;7.07;2.00;;;17.20;99.90;;;;;;5071314;28;20169;-60
2022/10/05 05:46:54;;;;;;;9.65;1.20;;;17.20;99.90;;;;;;5071200;28;20208;-58
2022/10/05 05:49:30;;;;;;;9.50;1.52;;;17.20;99.90;;;;;;5071443;28;20185;-58
2022/10/05 05:52:03;;;;;;;7.88;1.55;;;17.10;99.90;;;;;;5071628;28;20163;-58
2022/10/05 05:54:45;;;;;;;19.00;2.05;;;17.20;99.90;;;;;;5069431;28;20179;-58
2022/10/05 05:57:21;;;;;;;9.93;1.52;;;16.70;99.90;;;;;;5055778;28;20188;-58
2022/10/05 05:59:59;;;;;;;5.13;0.98;;;17.10;99.90;;;;;;5060349;28;20262;-58
2022/10/05 06:02:43;;;;;;;7.72;1.70;;;17.40;99.90;;;;;;5070858;28;20180;-58
2022/10/05 06:05:08;;;;;;;7.85;1.70;;;17.20;99.90;;;;;;5070119;28;20168;-59
2022/10/05 06:07:36;;;;;;;9.98;2.00;;;17.20;99.90;;;;;;5068018;28;20204;-58
2022/10/05 06:10:27;;;;;;;11.57;2.00;;;17.10;99.90;;;;;;5062444;28;20199;-58
2022/10/05 06:12:56;;;;;;;12.55;1.83;;;17.20;99.90;;;;;;5069576;28;20225;-58
2022/10/05 06:15:40;;;;;;;10.20;1.73;;;17.30;99.90;;;;;;5050936;28;20161;-58
2022/10/05 06:18:11;;;;;;;9.48;1.65;;;17.20;99.90;;;;;;5049406;28;20235;-60
2022/10/05 06:20:49;;;;;;;15.25;2.45;;;17.20;99.90;;;;;;5050496;28;20196;-59
2022/10/05 06:23:24;;;;;;;8.93;1.65;;;17.20;99.90;;;;;;5050413;28;20289;-59
2022/10/05 06:26:08;;;;;;;12.98;2.80;;;17.30;99.90;;;;;;5058051;28;20173;-58
2022/10/05 06:28:34;;;;;;;12.13;2.35;;;17.30;99.90;;;;;;5070322;28;20211;-59
2022/10/05 06:31:22;;;;;;;15.45;2.45;;;17.40;99.90;;;;;;5070742;28;20172;-58
2022/10/05 06:34:19;;;;;;;17.58;2.60;;;17.30;99.90;;;;;;5070626;28;20175;-58
2022/10/05 06:36:58;;;;;;;16.50;2.60;;;17.40;99.90;;;;;;4997667;28;20488;-58
2022/10/05 06:39:59;;;;;;;9.07;1.95;;;17.40;99.90;;;;;;5070745;28;20171;-58
2022/10/05 06:42:31;;;;;;;10.60;1.83;;;17.00;99.90;;;;;;5053216;28;20828;-57
2022/10/05 06:45:05;;;;;;;13.25;2.10;;;17.20;99.90;;;;;;5070689;28;20160;-57
2022/10/05 06:47:57;;;;;;;16.63;2.40;;;17.40;99.90;;;;;;5070678;28;20263;-59
2022/10/05 06:50:37;;;;;;;14.82;2.58;;;17.60;99.90;;;;;;5070229;28;20395;-60
2022/10/05 06:53:32;;;;;;;9.82;1.92;;;17.10;99.90;;;;;;5069792;28;20278;-58
2022/10/05 06:56:16;;;;;;;12.80;2.42;;;17.50;99.90;;;;;;5070093;28;20238;-59
2022/10/05 06:59:03;;;;;;;6.70;1.45;;;17.30;99.90;;;;;;5070298;28;20634;-59
2022/10/05 07:01:38;;;;;;;13.35;2.08;;;17.30;99.90;;;;;;5061280;28;20192;-61
2022/10/05 07:04:28;;;;;;;10.60;2.05;;;17.80;99.90;;;;;;5067882;28;20172;-58
2022/10/05 07:06:54;;;;;;;8.35;1.48;;;17.50;99.90;;;;;;5073670;28;20207;-60
2022/10/05 07:09:48;;;;;;;11.77;2.20;;;17.70;99.90;;;;;;5071245;28;20187;-59
2022/10/05 07:12:24;;;;;;;15.65;2.65;;;17.60;99.90;;;;;;5063145;28;20632;-62
2022/10/05 07:15:15;;;;;;;11.57;2.00;;;17.60;99.90;;;;;;5068519;28;20187;-64
2022/10/05 07:17:49;;;;;;;14.90;2.38;;;17.80;99.90;;;;;;5053984;28;20525;-63
2022/10/05 07:20:37;;;;;;;14.18;2.80;;;17.70;99.90;;;;;;5054159;28;20169;-64
2022/10/05 07:23:24;;;;;;;7.97;1.77;;;17.80;99.90;;;;;;5054097;28;20169;-61
2022/10/05 07:26:03;;;;;;;16.13;2.78;;;17.50;99.90;;;;;;5054076;28;20176;-61
2022/10/05 07:28:54;;;;;;;13.80;2.80;;;17.70;99.90;;;;;;5059951;28;20204;-62
2022/10/05 07:31:35;;;;;;;17.90;2.40;;;17.90;99.90;;;;;;5073297;28;20172;-62
2022/10/05 07:34:06;;;;;;;12.38;2.80;;;17.90;99.90;;;;;;5073997;28;20183;-61
2022/10/05 07:39:49;;;;;;;13.80;2.70;;;18.10;99.90;;;;;;5073401;28;20230;-61
2022/10/05 07:42:29;;;;;;;23.35;3.28;;;18.10;99.90;;;;;;5073805;28;20183;-61
2022/10/05 07:45:27;;;;;;;13.30;1.75;;;18.70;99.90;;;;;;5073813;28;20194;-60
2022/10/05 07:47:58;;;;;;;17.60;2.70;;;18.40;99.90;;;;;;5072753;28;20238;-60
2022/10/05 07:50:33;;;;;;;14.95;2.38;;;18.30;99.90;;;;;;5073324;28;20165;-61
2022/10/05 07:53:12;;;;;;;15.13;2.45;;;18.40;99.90;;;;;;5072856;28;20195;-61
2022/10/05 07:55:56;;;;;;;18.83;2.55;;;18.30;99.90;;;;;;5072808;28;20188;-61
2022/10/05 07:58:42;;;;;;;16.98;2.30;;;18.20;99.90;;;;;;5073590;28;20194;-61
2022/10/05 08:01:20;;;;;;;12.63;2.35;;;17.90;99.90;;;;;;5073329;28;20263;-61
2022/10/05 08:04:11;;;;;;;15.60;2.60;;;18.00;99.90;;;;;;5073308;28;20196;-59
2022/10/05 08:06:37;;;;;;;10.27;2.38;;;18.20;99.90;;;;;;5072969;28;20169;-62
2022/10/05 08:09:21;;;;;;;19.85;2.85;;;18.00;99.90;;;;;;5072974;28;20575;-61
2022/10/05 08:11:55;;;;;;;18.50;2.55;;;18.10;99.90;;;;;;5072460;28;20200;-62
2022/10/05 08:14:27;;;;;;;19.80;2.80;;;18.00;99.90;;;;;;5072758;28;20167;-60
2022/10/05 08:16:58;;;;;;;18.42;2.40;;;17.90;99.90;;;;;;5072668;28;20173;-61
2022/10/05 08:19:45;;;;;;;18.63;2.78;;;18.00;99.90;;;;;;5073016;28;20242;-61
2022/10/05 08:22:22;;;;;;;14.57;2.75;;;17.90;99.90;;;;;;5053386;28;20173;-61
2022/10/05 08:24:58;;;;;;;16.23;3.03;;;18.20;99.90;;;;;;5054256;28;20213;-62
2022/10/05 08:27:38;;;;;;;15.70;2.70;;;17.80;99.90;;;;;;5070678;28;20211;-62
2022/10/05 08:30:09;;;;;;;13.95;2.22;;;18.00;99.90;;;;;;5068242;28;20172;-61
2022/10/05 08:32:54;;;;;;;17.33;2.92;;;18.00;99.90;;;;;;5052484;28;20268;-60
2022/10/05 08:35:36;;;;;;;15.02;2.17;;;18.10;99.90;;;;;;5052592;28;20184;-60
2022/10/05 08:38:12;;;;;;;16.50;2.50;;;18.20;99.90;;;;;;5056523;28;20177;-61
2022/10/05 08:40:56;;;;;;;15.48;2.47;;;18.00;99.90;;;;;;5072780;28;20176;-58
2022/10/05 08:43:39;;;;;;;17.83;3.08;;;18.20;99.90;;;;;;5064361;28;20177;-58
2022/10/05 08:46:26;;;;;;;18.65;2.60;;;18.40;99.90;;;;;;5052603;28;20325;-58
2022/10/05 08:49:03;;;;;;;14.77;2.90;;;18.10;99.90;;;;;;5061755;28;20172;-59
2022/10/05 08:51:45;;;;;;;17.08;2.90;;;18.30;99.90;;;;;;5072208;28;20225;-59
2022/10/05 08:54:49;;;;;;;9.52;1.90;;;18.30;99.90;;;;;;5072520;28;20167;-57
2022/10/05 08:58:02;;;;;;;13.77;2.40;;;18.10;99.90;;;;;;5071721;28;20412;-58
2022/10/05 09:00:52;;;;;;;22.05;3.22;;;18.50;99.90;;;;;;5050386;28;20471;-58
2022/10/05 09:03:30;;;;;;;16.85;2.63;;;18.50;99.90;;;;;;5052300;28;20816;-58
2022/10/05 09:06:08;;;;;;;17.58;3.00;;;18.10;99.90;;;;;;5051908;28;20927;-58
2022/10/05 09:09:05;;;;;;;18.98;3.20;;;18.40;99.90;;;;;;5057427;28;20430;-58
2022/10/05 09:11:44;;;;;;;12.98;2.35;;;18.30;99.90;;;;;;5056280;28;20408;-60
2022/10/05 09:15:01;;;;;;;15.55;2.30;;;18.20;99.90;;;;;;5070379;28;20265;-59
2022/10/05 09:17:48;;;;;;;15.45;3.00;;;18.50;99.90;;;;;;5010153;28;20229;-59
2022/10/05 09:20:24;;;;;;;23.00;2.78;;;18.00;99.90;;;;;;5049444;28;20177;-58
2022/10/05 09:22:58;;;;;;;9.82;1.90;;;18.30;99.90;;;;;;5051634;28;20188;-59
2022/10/05 09:25:39;;;;;;;11.57;1.77;;;18.30;99.90;;;;;;5056310;28;20200;-59
2022/10/05 09:28:19;;;;;;;10.80;2.30;;;18.10;99.90;;;;;;5069869;28;20208;-60
2022/10/05 09:31:06;;;;;;;15.15;2.30;;;17.90;99.90;;;;;;5061178;28;20160;-59
2022/10/05 09:33:50;;;;;;;11.80;2.67;;;17.90;99.90;;;;;;5069292;28;20674;-58
2022/10/05 09:36:25;;;;;;;13.73;2.40;;;17.70;99.90;;;;;;5065534;28;20184;-60
2022/10/05 09:39:15;;;;;;;15.43;1.70;;;17.60;99.90;;;;;;5068239;28;20295;-59
2022/10/05 09:42:23;;;;;;;17.70;2.60;;;17.50;99.90;;;;;;5058957;28;20181;-59
2022/10/05 09:45:17;;;;;;;15.88;2.20;;;17.00;99.90;;;;;;4971397;28;20270;-59
2022/10/05 09:48:22;;;;;;;8.77;1.88;;;15.60;99.90;;;;;;5065466;28;20208;-60
2022/10/05 09:50:53;;;;;;;11.02;1.77;;;17.00;99.90;;;;;;5057636;28;20180;-61
2022/10/05 09:54:08;;;;;;;7.35;1.40;;;17.10;99.90;;;;;;5070472;28;20255;-62
2022/10/05 09:56:50;;;;;;;6.80;1.42;;;16.80;99.90;;;;;;5069522;28;20192;-62
2022/10/05 09:59:45;;;;;;;6.20;0.90;;;17.00;99.90;;;;;;5068612;28;20173;-61
2022/10/05 10:02:30;;;;;;;3.05;0.73;;;17.00;99.90;;;;;;5051852;28;20177;-60
2022/10/05 10:05:20;;;;;;;3.88;0.60;;;16.70;99.90;;;;;;5070424;28;20171;-60
2022/10/05 10:08:11;;;;;;;3.22;0.68;;;16.80;99.90;;;;;;5050530;28;20262;-62
2022/10/05 10:11:00;;;;;;;1.40;0.30;;;17.00;99.90;;;;;;5050695;28;20177;-61
2022/10/05 10:13:54;;;;;;;4.53;0.88;;;16.90;99.90;;;;;;5050252;28;20587;-61
2022/10/05 10:16:41;;;;;;;1.45;0.60;;;17.00;99.90;;;;;;5050666;28;20251;-61
2022/10/05 10:19:15;;;;;;;2.15;0.60;;;17.20;99.90;;;;;;5050580;28;20168;-62
2022/10/05 10:22:21;;;;;;;1.40;0.50;;;16.80;99.90;;;;;;5049950;28;20183;-61
2022/10/05 10:25:11;;;;;;;3.65;0.60;;;17.00;99.90;;;;;;5068043;28;20226;-61
2022/10/05 10:28:04;;;;;;;4.20;0.68;;;17.40;99.90;;;;;;5070515;28;20212;-59
2022/10/05 10:30:54;;;;;;;4.30;0.88;;;17.10;99.90;;;;;;5070541;28;20164;-59
2022/10/05 10:33:44;;;;;;;2.28;0.47;;;16.90;99.90;;;;;;5059707;28;20180;-62
2022/10/05 10:36:21;;;;;;;3.58;0.60;;;17.00;99.90;;;;;;5057812;28;20169;-62
2022/10/05 10:38:59;;;;;;;2.55;0.55;;;17.00;99.90;;;;;;5060951;28;20164;-60
2022/10/05 10:41:47;;;;;;;1.98;0.50;;;16.90;99.90;;;;;;5067686;28;20266;-60
2022/10/05 10:44:46;;;;;;;3.88;0.60;;;16.70;99.90;;;;;;5074606;28;20234;-60
2022/10/05 10:47:37;;;;;;;2.10;0.50;;;16.40;99.90;;;;;;5073142;28;20702;-61
2022/10/05 10:50:23;;;;;;;3.92;0.55;;;16.50;99.90;;;;;;5074391;28;20176;-61
2022/10/05 10:53:09;;;;;;;5.15;0.90;;;16.40;99.90;;;;;;5071993;28;20164;-60
2022/10/05 10:55:48;;;;;;;7.72;0.80;;;16.30;99.90;;;;;;5053926;28;20189;-60
2022/10/05 10:58:38;;;;;;;7.05;0.60;;;16.20;99.90;;;;;;5054227;28;20188;-61
2022/10/05 11:01:16;;;;;;;3.28;0.57;;;16.30;99.90;;;;;;5053886;28;20543;-60
2022/10/05 11:03:53;;;;;;;6.55;0.70;;;16.40;99.90;;;;;;5061087;28;20202;-60
2022/10/05 11:06:29;;;;;;;4.28;0.52;;;;;;;;;;5067666;28;22141;-60
2022/10/05 11:09:08;;;;;;;4.07;0.85;;;16.10;99.90;;;;;;5066523;28;20234;-60
2022/10/05 11:11:56;;;;;;;5.82;0.68;;;15.90;99.90;;;;;;5062684;28;20243;-60
2022/10/05 11:14:25;;;;;;;2.58;0.60;;;16.10;99.90;;;;;;5070091;28;20212;-60
2022/10/05 11:17:24;;;;;;;2.63;0.80;;;15.90;99.90;;;;;;5073925;28;20169;-60
2022/10/05 11:20:22;;;;;;;6.53;1.30;;;15.70;99.90;;;;;;5073147;28;20411;-60
2022/10/05 11:23:20;;;;;;;6.85;0.95;;;15.80;99.90;;;;;;5050563;28;20173;-60
2022/10/05 11:25:53;;;;;;;2.90;0.90;;;15.70;99.90;;;;;;5073763;28;20180;-60
2022/10/05 11:28:46;;;;;;;3.00;0.60;;;;;;;;;;5073597;28;20216;-60
2022/10/05 11:31:49;;;;;;;4.38;1.00;;;15.70;99.90;;;;;;5071916;28;20171;-60
2022/10/05 11:34:50;;;;;;;2.67;0.70;;;15.70;99.90;;;;;;5069374;28;20183;-59
2022/10/05 11:37:57;;;;;;;3.38;0.88;;;15.90;99.90;;;;;;5067484;28;20222;-60
2022/10/05 11:40:58;;;;;;;2.75;0.93;;;;;;;;;;5011379;28;20225;-60
2022/10/05 11:43:57;;;;;;;1.80;1.05;;;15.80;99.90;;;;;;5048737;28;20267;-60
2022/10/05 11:47:07;;;;;;;2.10;1.17;;;16.10;99.90;;;;;;5068508;28;20391;-60
2022/10/05 11:49:36;;;;;;;2.08;0.75;;;15.50;99.90;;;;;;5072972;28;20631;-60
2022/10/05 11:52:35;;;;;;;2.83;0.77;;;15.50;99.90;;;;;;5072118;28;20164;-60
2022/10/05 11:55:23;;;;;;;2.13;0.70;;;15.80;99.90;;;;;;5073045;28;20226;-60
2022/10/05 11:57:57;;;;;;;3.10;0.73;;;15.80;99.90;;;;;;5072956;28;20650;-60
2022/10/05 12:00:30;;;;;;;4.15;0.68;;;15.80;99.90;;;;;;5071481;28;20177;-60
2022/10/05 12:03:05;;;;;;;1.70;0.63;;;16.10;99.90;;;;;;5064647;28;20277;-60
2022/10/05 12:05:33;;;;;;;2.05;0.40;;;16.20;99.90;;;;;;5073403;28;20172;-60
2022/10/05 12:08:12;;;;;;;3.88;0.70;;;16.50;99.90;;;;;;5073382;28;20200;-60
2022/10/05 12:10:46;;;;;;;2.05;0.60;;;16.30;99.90;;;;;;5066774;28;20219;-60
2022/10/05 12:13:20;;;;;;;3.45;0.90;;;16.40;99.90;;;;;;5053262;28;20226;-61
2022/10/05 12:15:51;;;;;;;4.90;0.93;;;16.50;99.90;;;;;;5053217;28;20198;-60
2022/10/05 12:18:22;;;;;;;2.30;0.65;;;16.60;99.90;;;;;;5065444;28;20208;-61
2022/10/05 12:21:03;;;;;;;1.35;0.50;;;16.90;99.90;;;;;;5060328;28;20193;-61
2022/10/05 12:23:52;;;;;;;3.83;0.88;;;16.90;99.90;;;;;;5070867;28;20246;-60
2022/10/05 12:26:43;;;;;;;6.28;0.73;;;17.10;99.90;;;;;;5070185;28;20351;-60
2022/10/05 12:29:38;;;;;;;2.88;0.60;;;17.40;99.90;;;;;;5056050;28;20183;-60
2022/10/05 12:32:15;;;;;;;2.38;0.60;;;17.40;99.90;;;;;;5069420;28;20191;-60
2022/10/05 12:35:25;;;;;;;3.30;0.40;;;17.30;99.90;;;;;;5072142;28;20650;-60
2022/10/05 12:38:00;;;;;;;2.47;0.70;;;17.20;99.90;;;;;;5068684;28;20189;-60
2022/10/05 12:40:44;;;;;;;4.97;0.40;;;17.00;99.90;;;;;;5070902;28;20654;-61
2022/10/05 12:43:33;;;;;;;2.72;0.43;;;16.40;99.90;;;;;;5068711;28;20186;-61
2022/10/05 12:46:27;;;;;;;2.00;0.30;;;16.40;99.90;;;;;;5053070;28;20220;-61
2022/10/05 12:49:12;;;;;;;1.83;0.50;;;16.50;99.90;;;;;;5052590;28;20287;-61
2022/10/05 12:52:05;;;;;;;1.67;0.30;;;15.80;99.90;;;;;;5051255;28;20265;-61
2022/10/05 12:54:40;;;;;;;2.40;0.50;;;15.40;99.90;;;;;;5054547;28;20185;-60
2022/10/05 12:57:28;;;;;;;2.67;0.40;;;15.50;99.90;;;;;;5069961;28;20251;-60
2022/10/05 13:00:12;;;;;;;1.80;0.45;;;15.20;99.90;;;;;;5061721;28;20177;-59
2022/10/05 13:02:50;;;;;;;1.75;0.45;;;15.20;99.90;;;;;;5071248;28;20172;-60
2022/10/05 13:05:34;;;;;;;1.02;0.30;;;15.10;99.90;;;;;;5070931;28;20176;-60
2022/10/05 13:08:17;;;;;;;1.42;0.40;;;15.30;99.90;;;;;;5072067;28;20215;-60
2022/10/05 13:11:00;;;;;;;1.20;0.38;;;15.40;99.90;;;;;;5071368;28;20169;-60
2022/10/05 13:14:04;;;;;;;3.40;0.52;;;15.60;99.90;;;;;;5071994;28;20184;-60
2022/10/05 13:16:34;;;;;;;4.35;0.63;;;15.80;99.90;;;;;;5059205;28;20162;-60
2022/10/05 13:19:20;;;;;;;4.43;0.60;;;15.50;99.90;;;;;;5064565;28;20214;-59
2022/10/05 13:21:48;;;;;;;1.48;0.60;;;16.40;99.90;;;;;;5060221;28;20196;-60
2022/10/05 13:24:34;;;;;;;10.60;1.10;;;16.10;99.90;;;;;;5072135;28;20176;-59
2022/10/05 13:27:31;;;;;;;4.95;0.73;;;16.60;99.90;;;;;;5056832;28;20204;-59
2022/10/05 13:30:19;;;;;;;8.35;1.30;;;16.20;99.90;;;;;;5041768;28;20212;-60
2022/10/05 13:33:05;;;;;;;6.85;1.25;;;16.20;99.90;;;;;;5070965;28;20301;-59
2022/10/05 13:35:30;;;;;;;5.70;0.80;;;16.00;99.90;;;;;;5059832;28;20233;-59
2022/10/05 13:38:16;;;;;;;8.10;1.10;;;16.00;99.90;;;;;;5071408;28;20255;-60
2022/10/05 13:40:50;;;;;;;9.27;1.08;;;16.10;99.90;;;;;;5070879;28;20203;-60
2022/10/05 13:43:47;;;;;;;10.85;1.40;;;16.00;99.90;;;;;;5071376;28;20168;-60
2022/10/05 13:46:58;;;;;;;9.65;1.70;;;15.60;99.90;;;;;;5071019;28;20303;-59
2022/10/05 13:49:48;;;;;;;7.93;1.42;;;15.10;99.90;;;;;;5042423;28;20207;-59
2022/10/05 13:52:28;;;;;;;12.05;1.52;;;15.00;99.90;;;;;;5059815;28;20177;-60
2022/10/05 13:55:12;;;;;;;9.65;1.13;;;14.80;99.90;;;;;;5054763;28;20169;-60
2022/10/05 13:58:05;;;;;;;4.80;0.60;;;15.50;99.90;;;;;;5069474;28;20199;-60
2022/10/05 14:00:35;;;;;;;6.32;1.02;;;15.70;99.90;;;;;;5070986;28;20242;-60
2022/10/05 14:03:01;;;;;;;6.77;1.40;;;16.60;99.90;;;;;;5062544;28;20463;-60
2022/10/05 14:05:30;;;;;;;7.97;0.82;;;16.70;99.90;;;;;;5051149;28;20178;-60